Hlavní strana
METAR-TAF:

METAR-TAF

Letiště :

Kristiansand, Norsko

zeměpisná šířka: 58-12N, zeměpisná délka: 008-05E, výška: 1 m

Aktuální stav počasí

Zpráva byla vytvořena před 25 minutami, v 17:20 UTC
Severní vítr 5 kt
Teplota 4°C
Vlhkost vzduchu 28%
Tlak 1020 hPa
Viditelnost 10 km a více
Žádná oblačnost pod 1500 m, nevyskytují se cumulonimby.

METAR: ENCN 071720Z 35005KT CAVOK 04/M13 Q1020

Čas: 18:45 (17:45 UTC)

Předpověď počasí

Zpráva byla vytvořena před 3 hodinami a 45 minutami, v 14:00 UTC
Předpověď platná od 07 v 15 UTC do 07 v 23 UTC
Severoseverovýchodní vítr 8 kt
Viditelnost 10 km a více
Žádná oblačnost pod 1500 m, nevyskytují se cumulonimby.

TAF: ENCN 071400Z 0715/0723 03008KT CAVOK

Stav a předpovědi počasí z více než 4 000 letišť (zprávy METAR a TAF).

Červené a žluté tečky na mapě představují dostupné meteorologické stanice.

Když kurzor umístíte na tečku, zobrazí se název stanice.

Pak kliknutím zobrazíte stav a předpověď počasí.

Chcete-li změnit mapu, kliknutím na zelené tlačítko se znaménkem +mapu přiblížíte, kliknutím na zelené tlačítko se znaménkem – mapu oddálíte a kliknutím na zelené šipky přejdete na sousední mapy.


METAR-TAF: